Beech Grove, Texas
Current Conditions -  °F | °C
As of 2:15 PM on Thursday 29 Jan 2015 (Local Time) from KJAS Reporting Station
Clear Clear  
Wind Chill: 75°   Ceiling: Unl
Heat Index: 75°   Visibility: 10mi
Dew Point: 51°   Wind: 6mph
Humidity: 42%   Direction: 270°W
Pressure: 30.21"   Gusts: NA
Location:  30.9529°N, 94.0707°W
Report Text: KJAS 292015Z AUTO 27005KT 10SM CLR 24/10 A3021 RMK AO2 T02400103
Loading
Personal Weather Stations






























Interactive Weather Map New forecast layout! Learn more

10-Day Weather Forecast

Advertisements
Track Severe Weather on mobile